sensor_id;sensor_type;location;lat;lon;timestamp;pressure;altitude;pressure_sealevel;temperature;humidity
21988;BME280;11158;53.404;-1.510;2023-04-04T00:02:06;101917.94;;;9.08;47.84
21988;BME280;11158;53.404;-1.510;2023-04-04T00:04:51;101910.59;;;8.90;47.78
21988;BME280;11158;53.404;-1.510;2023-04-04T00:07:36;101911.06;;;9.05;47.41
21988;BME280;11158;53.404;-1.510;2023-04-04T00:10:20;101903.38;;;8.62;47.86
21988;BME280;11158;53.404;-1.510;2023-04-04T00:13:04;101909.75;;;8.80;47.38
21988;BME280;11158;53.404;-1.510;2023-04-04T00:15:48;101909.81;;;8.59;47.96
21988;BME280;11158;53.404;-1.510;2023-04-04T00:18:33;101911.78;;;9.07;46.68
21988;BME280;11158;53.404;-1.510;2023-04-04T00:21:17;101911.81;;;8.76;46.95
21988;BME280;11158;53.404;-1.510;2023-04-04T00:24:01;101908.41;;;9.34;45.97
21988;BME280;11158;53.404;-1.510;2023-04-04T00:30:45;101902.81;;;9.57;43.96
21988;BME280;11158;53.404;-1.510;2023-04-04T00:45:06;101906.88;;;8.10;47.89
21988;BME280;11158;53.404;-1.510;2023-04-04T02:28:53;101838.84;;;8.06;44.36
21988;BME280;11158;53.404;-1.510;2023-04-04T02:31:38;101844.97;;;8.18;44.26
21988;BME280;11158;53.404;-1.510;2023-04-04T02:38:37;101839.31;;;8.42;43.98
21988;BME280;11158;53.404;-1.510;2023-04-04T02:41:27;101839.31;;;8.42;43.93
21988;BME280;11158;53.404;-1.510;2023-04-04T02:44:13;101828.84;;;8.50;44.03
21988;BME280;11158;53.404;-1.510;2023-04-04T02:47:00;101836.00;;;8.29;44.62
21988;BME280;11158;53.404;-1.510;2023-04-04T02:49:47;101824.56;;;8.07;44.56
21988;BME280;11158;53.404;-1.510;2023-04-04T02:52:35;101827.25;;;8.07;44.76
21988;BME280;11158;53.404;-1.510;2023-04-04T02:55:21;101829.19;;;8.05;44.96
21988;BME280;11158;53.404;-1.510;2023-04-04T02:58:06;101827.28;;;7.86;45.35
21988;BME280;11158;53.404;-1.510;2023-04-04T03:00:54;101827.69;;;7.82;45.78
21988;BME280;11158;53.404;-1.510;2023-04-04T03:03:39;101828.13;;;8.17;44.59
21988;BME280;11158;53.404;-1.510;2023-04-04T03:06:23;101823.41;;;8.31;44.26
21988;BME280;11158;53.404;-1.510;2023-04-04T03:09:07;101824.41;;;8.39;44.06
21988;BME280;11158;53.404;-1.510;2023-04-04T03:11:51;101821.53;;;8.22;44.06
21988;BME280;11158;53.404;-1.510;2023-04-04T03:14:35;101825.53;;;8.37;43.81
21988;BME280;11158;53.404;-1.510;2023-04-04T03:17:20;101815.66;;;8.49;44.16
21988;BME280;11158;53.404;-1.510;2023-04-04T03:20:04;101808.06;;;8.54;43.89
21988;BME280;11158;53.404;-1.510;2023-04-04T03:22:48;101810.00;;;8.42;44.18
21988;BME280;11158;53.404;-1.510;2023-04-04T03:25:32;101808.09;;;8.23;45.20
21988;BME280;11158;53.404;-1.510;2023-04-04T03:28:16;101795.19;;;8.18;45.43
21988;BME280;11158;53.404;-1.510;2023-04-04T03:31:05;101804.13;;;7.77;45.74
21988;BME280;11158;53.404;-1.510;2023-04-04T03:37:30;101813.13;;;6.47;48.80
21988;BME280;11158;53.404;-1.510;2023-04-04T03:40:14;101813.22;;;7.00;47.13
21988;BME280;11158;53.404;-1.510;2023-04-04T03:42:58;101804.56;;;6.87;47.81
21988;BME280;11158;53.404;-1.510;2023-04-04T03:45:45;101800.53;;;6.60;48.46
21988;BME280;11158;53.404;-1.510;2023-04-04T03:48:32;101811.50;;;5.65;50.76
21988;BME280;11158;53.404;-1.510;2023-04-04T03:51:24;101810.00;;;5.97;50.37
21988;BME280;11158;53.404;-1.510;2023-04-04T03:54:09;101815.00;;;5.55;51.26
21988;BME280;11158;53.404;-1.510;2023-04-04T03:56:53;101824.06;;;5.28;52.13
21988;BME280;11158;53.404;-1.510;2023-04-04T03:59:38;101810.09;;;5.73;51.23
21988;BME280;11158;53.404;-1.510;2023-04-04T04:02:22;101806.47;;;5.85;50.82
21988;BME280;11158;53.404;-1.510;2023-04-04T04:05:06;101805.78;;;6.28;49.88
21988;BME280;11158;53.404;-1.510;2023-04-04T04:07:52;101807.09;;;6.45;48.93
21988;BME280;11158;53.404;-1.510;2023-04-04T04:10:36;101800.66;;;6.59;48.82
21988;BME280;11158;53.404;-1.510;2023-04-04T04:21:08;101794.09;;;6.74;48.28
21988;BME280;11158;53.404;-1.510;2023-04-04T04:23:56;101798.81;;;6.70;48.15
21988;BME280;11158;53.404;-1.510;2023-04-04T04:26:42;101794.09;;;6.74;48.14
21988;BME280;11158;53.404;-1.510;2023-04-04T04:29:34;101782.09;;;6.25;49.40
21988;BME280;11158;53.404;-1.510;2023-04-04T04:32:22;101780.41;;;5.79;50.41
21988;BME280;11158;53.404;-1.510;2023-04-04T04:35:11;101788.41;;;6.01;49.78
21988;BME280;11158;53.404;-1.510;2023-04-04T04:37:58;101787.69;;;5.99;50.14
21988;BME280;11158;53.404;-1.510;2023-04-04T04:40:47;101787.53;;;5.78;50.54
21988;BME280;11158;53.404;-1.510;2023-04-04T04:43:33;101787.28;;;5.81;50.11
21988;BME280;11158;53.404;-1.510;2023-04-04T04:46:21;101788.97;;;5.71;50.79
21988;BME280;11158;53.404;-1.510;2023-04-04T04:49:09;101796.44;;;5.88;50.69
21988;BME280;11158;53.404;-1.510;2023-04-04T04:51:55;101793.97;;;5.52;51.04
21988;BME280;11158;53.404;-1.510;2023-04-04T04:54:39;101795.31;;;5.11;52.31
21988;BME280;11158;53.404;-1.510;2023-04-04T04:57:23;101789.22;;;5.21;52.64
21988;BME280;11158;53.404;-1.510;2023-04-04T05:00:07;101791.31;;;5.40;51.91
21988;BME280;11158;53.404;-1.510;2023-04-04T05:02:56;101791.56;;;5.49;52.29
21988;BME280;11158;53.404;-1.510;2023-04-04T05:05:41;101791.47;;;5.50;51.17
21988;BME280;11158;53.404;-1.510;2023-04-04T05:08:26;101802.81;;;5.75;50.72
21988;BME280;11158;53.404;-1.510;2023-04-04T05:11:10;101799.38;;;6.31;49.25
21988;BME280;11158;53.404;-1.510;2023-04-04T05:13:54;101804.03;;;6.61;48.37
21988;BME280;11158;53.404;-1.510;2023-04-04T05:16:38;101807.13;;;6.77;47.68
21988;BME280;11158;53.404;-1.510;2023-04-04T05:19:22;101802.91;;;7.07;47.04
21988;BME280;11158;53.404;-1.510;2023-04-04T05:22:06;101800.25;;;7.07;46.91
21988;BME280;11158;53.404;-1.510;2023-04-04T05:24:50;101806.34;;;6.98;47.25
21988;BME280;11158;53.404;-1.510;2023-04-04T05:27:35;101801.69;;;6.79;47.68
21988;BME280;11158;53.404;-1.510;2023-04-04T05:30:19;101804.31;;;6.90;47.68
21988;BME280;11158;53.404;-1.510;2023-04-04T05:33:03;101807.06;;;7.00;47.62
21988;BME280;11158;53.404;-1.510;2023-04-04T05:35:47;101805.06;;;7.13;47.25
21988;BME280;11158;53.404;-1.510;2023-04-04T05:38:31;101813.53;;;6.75;47.59
21988;BME280;11158;53.404;-1.510;2023-04-04T05:41:16;101811.44;;;6.46;48.62
21988;BME280;11158;53.404;-1.510;2023-04-04T07:05:14;101734.88;;;20.53;22.94
21988;BME280;11158;53.404;-1.510;2023-04-04T07:08:06;101732.69;;;20.68;22.94
21988;BME280;11158;53.404;-1.510;2023-04-04T07:10:52;101741.84;;;17.67;26.10
21988;BME280;11158;53.404;-1.510;2023-04-04T07:13:37;101755.00;;;14.61;30.98
21988;BME280;11158;53.404;-1.510;2023-04-04T07:16:21;101753.50;;;12.49;34.83
21988;BME280;11158;53.404;-1.510;2023-04-04T07:19:05;101760.63;;;11.37;37.42
21988;BME280;11158;53.404;-1.510;2023-04-04T07:21:49;101762.88;;;11.24;38.02
21988;BME280;11158;53.404;-1.510;2023-04-04T07:24:34;101766.19;;;9.81;40.58
21988;BME280;11158;53.404;-1.510;2023-04-04T07:27:18;101765.06;;;9.74;41.65
21988;BME280;11158;53.404;-1.510;2023-04-04T07:30:03;101764.50;;;9.70;41.23
21988;BME280;11158;53.404;-1.510;2023-04-04T07:32:47;101773.28;;;9.43;42.17
21988;BME280;11158;53.404;-1.510;2023-04-04T07:35:31;101771.19;;;9.47;42.21
21988;BME280;11158;53.404;-1.510;2023-04-04T07:38:15;101764.13;;;9.65;41.82
21988;BME280;11158;53.404;-1.510;2023-04-04T07:41:00;101755.69;;;9.97;42.00
21988;BME280;11158;53.404;-1.510;2023-04-04T07:43:44;101761.13;;;10.43;41.08
21988;BME280;11158;53.404;-1.510;2023-04-04T07:46:28;101765.81;;;10.59;41.17
21988;BME280;11158;53.404;-1.510;2023-04-04T07:49:12;101761.13;;;10.43;41.65
21988;BME280;11158;53.404;-1.510;2023-04-04T07:51:56;101769.09;;;10.71;41.08
21988;BME280;11158;53.404;-1.510;2023-04-04T07:54:40;101754.44;;;10.29;41.97
21988;BME280;11158;53.404;-1.510;2023-04-04T07:57:24;101759.47;;;10.96;41.15
21988;BME280;11158;53.404;-1.510;2023-04-04T08:00:08;101752.94;;;11.16;40.93
21988;BME280;11158;53.404;-1.510;2023-04-04T08:02:54;101754.91;;;11.32;40.64
21988;BME280;11158;53.404;-1.510;2023-04-04T08:05:40;101742.22;;;11.34;40.96
21988;BME280;11158;53.404;-1.510;2023-04-04T08:08:24;101745.63;;;11.00;41.40
21988;BME280;11158;53.404;-1.510;2023-04-04T08:11:08;101739.66;;;11.06;41.57
21988;BME280;11158;53.404;-1.510;2023-04-04T08:13:52;101739.94;;;11.21;41.06
21988;BME280;11158;53.404;-1.510;2023-04-04T08:16:38;101749.47;;;10.80;41.65
21988;BME280;11158;53.404;-1.510;2023-04-04T08:19:22;101731.41;;;11.00;42.03
21988;BME280;11158;53.404;-1.510;2023-04-04T08:22:06;101738.22;;;10.94;41.85
21988;BME280;11158;53.404;-1.510;2023-04-04T08:24:52;101746.25;;;11.38;41.18
21988;BME280;11158;53.404;-1.510;2023-04-04T08:27:40;101746.97;;;11.22;41.23
21988;BME280;11158;53.404;-1.510;2023-04-04T08:30:27;101743.88;;;11.35;41.06
21988;BME280;11158;53.404;-1.510;2023-04-04T08:33:11;101744.56;;;11.37;40.68
21988;BME280;11158;53.404;-1.510;2023-04-04T08:35:55;101742.03;;;11.36;41.18
21988;BME280;11158;53.404;-1.510;2023-04-04T08:38:41;101737.25;;;11.47;40.92
21988;BME280;11158;53.404;-1.510;2023-04-04T08:41:26;101738.47;;;11.53;40.95
21988;BME280;11158;53.404;-1.510;2023-04-04T08:44:17;101731.34;;;11.88;39.99
21988;BME280;11158;53.404;-1.510;2023-04-04T08:47:06;101735.97;;;11.25;41.53
21988;BME280;11158;53.404;-1.510;2023-04-04T08:49:53;101730.69;;;11.68;39.40
21988;BME280;11158;53.404;-1.510;2023-04-04T08:52:39;101722.38;;;11.01;40.29
21988;BME280;11158;53.404;-1.510;2023-04-04T08:55:24;101731.63;;;10.35;40.72
21988;BME280;11158;53.404;-1.510;2023-04-04T08:58:08;101735.41;;;9.77;42.22
21988;BME280;11158;53.404;-1.510;2023-04-04T09:00:54;101735.41;;;10.78;41.70
21988;BME280;11158;53.404;-1.510;2023-04-04T09:03:39;101739.91;;;10.59;41.84
21988;BME280;11158;53.404;-1.510;2023-04-04T09:06:24;101739.06;;;10.77;40.47
21988;BME280;11158;53.404;-1.510;2023-04-04T09:09:09;101728.09;;;11.06;40.35
21988;BME280;11158;53.404;-1.510;2023-04-04T09:11:54;101733.69;;;10.95;40.16
21988;BME280;11158;53.404;-1.510;2023-04-04T09:14:42;101728.91;;;11.24;39.77
21988;BME280;11158;53.404;-1.510;2023-04-04T09:17:26;101716.13;;;11.36;39.53
21988;BME280;11158;53.404;-1.510;2023-04-04T09:20:45;101724.41;;;10.63;40.41
21988;BME280;11158;53.404;-1.510;2023-04-04T09:23:30;101720.59;;;10.65;40.39
21988;BME280;11158;53.404;-1.510;2023-04-04T09:26:14;101718.94;;;10.37;40.67
21988;BME280;11158;53.404;-1.510;2023-04-04T09:28:59;101715.06;;;10.21;40.37
21988;BME280;11158;53.404;-1.510;2023-04-04T09:31:44;101717.13;;;10.91;39.32
21988;BME280;11158;53.404;-1.510;2023-04-04T09:34:29;101708.63;;;10.14;40.37
21988;BME280;11158;53.404;-1.510;2023-04-04T09:37:15;101717.06;;;10.47;39.18
21988;BME280;11158;53.404;-1.510;2023-04-04T09:40:00;101710.16;;;10.17;39.65
21988;BME280;11158;53.404;-1.510;2023-04-04T09:42:47;101722.03;;;10.60;40.33
21988;BME280;11158;53.404;-1.510;2023-04-04T09:45:33;101722.78;;;10.52;40.39
21988;BME280;11158;53.404;-1.510;2023-04-04T09:48:29;101713.25;;;10.50;40.99
21988;BME280;11158;53.404;-1.510;2023-04-04T09:51:15;101700.25;;;11.43;39.15
21988;BME280;11158;53.404;-1.510;2023-04-04T09:53:59;101699.81;;;11.03;39.70
21988;BME280;11158;53.404;-1.510;2023-04-04T09:56:43;101700.44;;;11.76;37.97
21988;BME280;11158;53.404;-1.510;2023-04-04T09:59:28;101704.84;;;11.85;36.96
21988;BME280;11158;53.404;-1.510;2023-04-04T10:02:12;101701.38;;;12.51;37.27
21988;BME280;11158;53.404;-1.510;2023-04-04T10:04:57;101706.50;;;11.86;38.91
21988;BME280;11158;53.404;-1.510;2023-04-04T10:07:41;101693.50;;;12.58;36.61
21988;BME280;11158;53.404;-1.510;2023-04-04T10:10:27;101705.25;;;11.98;38.17
21988;BME280;11158;53.404;-1.510;2023-04-04T10:13:22;101693.69;;;12.65;36.51
21988;BME280;11158;53.404;-1.510;2023-04-04T10:16:06;101695.50;;;12.40;36.97
21988;BME280;11158;53.404;-1.510;2023-04-04T10:18:51;101686.28;;;12.50;37.44
21988;BME280;11158;53.404;-1.510;2023-04-04T10:21:39;101680.06;;;12.33;36.68
21988;BME280;11158;53.404;-1.510;2023-04-04T10:24:24;101689.13;;;12.32;37.50
21988;BME280;11158;53.404;-1.510;2023-04-04T10:27:09;101686.13;;;12.76;36.07
21988;BME280;11158;53.404;-1.510;2023-04-04T10:29:54;101685.34;;;11.40;38.66
21988;BME280;11158;53.404;-1.510;2023-04-04T10:33:02;101694.06;;;11.68;37.99
21988;BME280;11158;53.404;-1.510;2023-04-04T10:35:50;101694.69;;;11.97;37.08
21988;BME280;11158;53.404;-1.510;2023-04-04T10:38:41;101684.13;;;12.70;36.16
21988;BME280;11158;53.404;-1.510;2023-04-04T10:41:27;101682.09;;;13.05;35.97
21988;BME280;11158;53.404;-1.510;2023-04-04T10:44:23;101682.19;;;13.53;34.89
21988;BME280;11158;53.404;-1.510;2023-04-04T10:47:20;101674.53;;;13.33;35.47
21988;BME280;11158;53.404;-1.510;2023-04-04T10:50:05;101684.78;;;12.40;35.92
21988;BME280;11158;53.404;-1.510;2023-04-04T10:52:52;101676.06;;;12.70;35.51
21988;BME280;11158;53.404;-1.510;2023-04-04T10:55:36;101679.41;;;12.48;35.97
21988;BME280;11158;53.404;-1.510;2023-04-04T10:58:21;101672.06;;;12.99;35.74
21988;BME280;11158;53.404;-1.510;2023-04-04T11:01:07;101667.56;;;13.64;34.22
21988;BME280;11158;53.404;-1.510;2023-04-04T11:04:17;101673.69;;;12.43;35.83
21988;BME280;11158;53.404;-1.510;2023-04-04T11:07:12;101662.47;;;12.47;35.15
21988;BME280;11158;53.404;-1.510;2023-04-04T11:09:59;101664.13;;;13.86;33.32
21988;BME280;11158;53.404;-1.510;2023-04-04T11:12:44;101651.25;;;14.04;32.66
21988;BME280;11158;53.404;-1.510;2023-04-04T11:15:44;101654.38;;;14.16;33.09
21988;BME280;11158;53.404;-1.510;2023-04-04T11:21:20;101646.56;;;13.98;33.24
21988;BME280;11158;53.404;-1.510;2023-04-04T11:24:13;101648.00;;;13.86;31.86
21988;BME280;11158;53.404;-1.510;2023-04-04T11:26:58;101643.19;;;13.01;33.93
21988;BME280;11158;53.404;-1.510;2023-04-04T11:29:51;101635.09;;;13.34;33.44
21988;BME280;11158;53.404;-1.510;2023-04-04T11:32:42;101623.44;;;14.43;32.12
21988;BME280;11158;53.404;-1.510;2023-04-04T11:35:27;101624.91;;;14.23;32.88
21988;BME280;11158;53.404;-1.510;2023-04-04T11:38:14;101622.16;;;14.31;31.92
21988;BME280;11158;53.404;-1.510;2023-04-04T11:40:58;101618.84;;;13.98;32.50
21988;BME280;11158;53.404;-1.510;2023-04-04T11:43:44;101612.13;;;13.62;33.15
21988;BME280;11158;53.404;-1.510;2023-04-04T11:46:29;101612.34;;;14.38;32.06
21988;BME280;11158;53.404;-1.510;2023-04-04T11:49:14;101604.50;;;14.52;31.08
21988;BME280;11158;53.404;-1.510;2023-04-04T11:52:03;101607.00;;;13.84;32.61
21988;BME280;11158;53.404;-1.510;2023-04-04T11:54:48;101603.44;;;14.38;32.46
21988;BME280;11158;53.404;-1.510;2023-04-04T11:57:40;101596.59;;;13.81;31.17
21988;BME280;11158;53.404;-1.510;2023-04-04T12:00:29;101594.38;;;14.62;30.99
21988;BME280;11158;53.404;-1.510;2023-04-04T12:03:15;101585.31;;;14.78;31.53
21988;BME280;11158;53.404;-1.510;2023-04-04T12:06:01;101578.72;;;14.95;31.95
21988;BME280;11158;53.404;-1.510;2023-04-04T12:08:45;101581.09;;;14.60;30.61
21988;BME280;11158;53.404;-1.510;2023-04-04T12:11:32;101583.72;;;13.99;32.55
21988;BME280;11158;53.404;-1.510;2023-04-04T12:14:21;101571.47;;;14.66;31.91
21988;BME280;11158;53.404;-1.510;2023-04-04T12:17:06;101567.88;;;15.33;30.66
21988;BME280;11158;53.404;-1.510;2023-04-04T12:19:50;101562.22;;;15.28;30.25
21988;BME280;11158;53.404;-1.510;2023-04-04T12:22:35;101563.31;;;15.85;30.16
21988;BME280;11158;53.404;-1.510;2023-04-04T12:25:21;101548.59;;;15.81;29.75
21988;BME280;11158;53.404;-1.510;2023-04-04T12:28:06;101546.16;;;15.05;29.71
21988;BME280;11158;53.404;-1.510;2023-04-04T12:30:51;101541.78;;;15.34;29.46
21988;BME280;11158;53.404;-1.510;2023-04-04T12:33:36;101543.97;;;15.45;30.55
21988;BME280;11158;53.404;-1.510;2023-04-04T12:36:24;101546.41;;;15.40;30.93
21988;BME280;11158;53.404;-1.510;2023-04-04T12:39:09;101528.63;;;15.97;29.55
21988;BME280;11158;53.404;-1.510;2023-04-04T12:41:58;101529.75;;;15.51;30.93
21988;BME280;11158;53.404;-1.510;2023-04-04T12:44:44;101530.50;;;15.45;29.29
21988;BME280;11158;53.404;-1.510;2023-04-04T12:47:29;101518.47;;;14.81;30.04
21988;BME280;11158;53.404;-1.510;2023-04-04T12:50:21;101522.28;;;15.83;29.70
21988;BME280;11158;53.404;-1.510;2023-04-04T12:53:06;101511.16;;;16.42;28.96
21988;BME280;11158;53.404;-1.510;2023-04-04T12:55:51;101502.66;;;16.73;28.42
21988;BME280;11158;53.404;-1.510;2023-04-04T12:58:36;101500.75;;;16.39;28.06
21988;BME280;11158;53.404;-1.510;2023-04-04T13:01:20;101500.50;;;16.62;27.77
21988;BME280;11158;53.404;-1.510;2023-04-04T13:04:07;101492.84;;;16.09;29.03
21988;BME280;11158;53.404;-1.510;2023-04-04T13:06:51;101492.22;;;16.64;28.80
21988;BME280;11158;53.404;-1.510;2023-04-04T13:09:35;101489.34;;;16.65;29.05
21988;BME280;11158;53.404;-1.510;2023-04-04T13:15:50;101479.00;;;16.75;28.66
21988;BME280;11158;53.404;-1.510;2023-04-04T13:18:37;101477.81;;;16.00;28.78
21988;BME280;11158;53.404;-1.510;2023-04-04T13:21:22;101475.34;;;16.55;28.61
21988;BME280;11158;53.404;-1.510;2023-04-04T13:24:06;101467.91;;;16.29;28.70
21988;BME280;11158;53.404;-1.510;2023-04-04T13:26:51;101473.19;;;16.16;29.40
21988;BME280;11158;53.404;-1.510;2023-04-04T13:29:35;101468.78;;;16.36;29.04
21988;BME280;11158;53.404;-1.510;2023-04-04T13:32:19;101470.44;;;16.65;28.65
21988;BME280;11158;53.404;-1.510;2023-04-04T13:35:03;101466.63;;;16.88;28.49
21988;BME280;11158;53.404;-1.510;2023-04-04T13:37:48;101466.53;;;16.74;29.04
21988;BME280;11158;53.404;-1.510;2023-04-04T13:40:32;101464.66;;;17.10;28.54
21988;BME280;11158;53.404;-1.510;2023-04-04T13:43:16;101451.38;;;17.15;28.23
21988;BME280;11158;53.404;-1.510;2023-04-04T13:46:00;101458.22;;;16.76;28.30
21988;BME280;11158;53.404;-1.510;2023-04-04T13:48:45;101449.75;;;17.21;28.03
21988;BME280;11158;53.404;-1.510;2023-04-04T13:51:29;101451.38;;;17.15;27.92
21988;BME280;11158;53.404;-1.510;2023-04-04T13:54:14;101449.19;;;16.90;28.03
21988;BME280;11158;53.404;-1.510;2023-04-04T13:56:58;101446.97;;;17.01;27.71
21988;BME280;11158;53.404;-1.510;2023-04-04T13:59:42;101444.66;;;16.98;27.51
21988;BME280;11158;53.404;-1.510;2023-04-04T14:02:26;101431.78;;;16.93;27.29
21988;BME280;11158;53.404;-1.510;2023-04-04T14:05:10;101431.75;;;16.86;26.98
21988;BME280;11158;53.404;-1.510;2023-04-04T14:07:55;101426.53;;;17.53;27.55
21988;BME280;11158;53.404;-1.510;2023-04-04T14:10:39;101421.56;;;16.88;27.37
21988;BME280;11158;53.404;-1.510;2023-04-04T14:13:23;101420.25;;;17.32;27.20
21988;BME280;11158;53.404;-1.510;2023-04-04T14:16:07;101414.63;;;17.21;25.81
21988;BME280;11158;53.404;-1.510;2023-04-04T14:18:52;101406.25;;;15.98;24.54
21988;BME280;11158;53.404;-1.510;2023-04-04T14:21:36;101399.09;;;16.46;24.53
21988;BME280;11158;53.404;-1.510;2023-04-04T14:24:20;101411.69;;;16.74;24.63
21988;BME280;11158;53.404;-1.510;2023-04-04T14:27:04;101396.59;;;17.41;23.16
21988;BME280;11158;53.404;-1.510;2023-04-04T14:29:48;101401.84;;;16.18;23.75
21988;BME280;11158;53.404;-1.510;2023-04-04T14:32:32;101396.97;;;16.76;23.75
21988;BME280;11158;53.404;-1.510;2023-04-04T14:35:16;101406.34;;;16.81;24.57
21988;BME280;11158;53.404;-1.510;2023-04-04T14:38:01;101396.81;;;17.66;24.59
21988;BME280;11158;53.404;-1.510;2023-04-04T14:40:46;101395.75;;;17.61;24.31
21988;BME280;11158;53.404;-1.510;2023-04-04T14:43:31;101385.81;;;17.81;24.02
21988;BME280;11158;53.404;-1.510;2023-04-04T14:46:15;101386.44;;;18.10;22.98
21988;BME280;11158;53.404;-1.510;2023-04-04T14:49:02;101385.16;;;17.59;24.10
21988;BME280;11158;53.404;-1.510;2023-04-04T14:51:49;101380.63;;;17.93;23.82
21988;BME280;11158;53.404;-1.510;2023-04-04T14:54:35;101394.06;;;17.33;24.52
21988;BME280;11158;53.404;-1.510;2023-04-04T14:57:20;101383.09;;;17.74;22.45
21988;BME280;11158;53.404;-1.510;2023-04-04T15:00:05;101382.84;;;17.36;24.17
21988;BME280;11158;53.404;-1.510;2023-04-04T15:02:50;101375.00;;;17.81;23.95
21988;BME280;11158;53.404;-1.510;2023-04-04T15:05:35;101368.94;;;17.72;23.25
21988;BME280;11158;53.404;-1.510;2023-04-04T15:08:20;101364.16;;;17.61;24.09
21988;BME280;11158;53.404;-1.510;2023-04-04T15:11:04;101353.28;;;17.14;23.82
21988;BME280;11158;53.404;-1.510;2023-04-04T15:13:48;101358.13;;;17.72;23.69
21988;BME280;11158;53.404;-1.510;2023-04-04T15:20:15;101351.63;;;17.20;23.46
21988;BME280;11158;53.404;-1.510;2023-04-04T15:27:02;101346.25;;;17.27;24.17
21988;BME280;11158;53.404;-1.510;2023-04-04T15:29:47;101344.81;;;17.51;24.49
21988;BME280;11158;53.404;-1.510;2023-04-04T15:32:31;101335.03;;;17.23;24.70
21988;BME280;11158;53.404;-1.510;2023-04-04T15:35:17;101335.25;;;17.75;24.17
21988;BME280;11158;53.404;-1.510;2023-04-04T15:38:01;101338.31;;;18.18;22.87
21988;BME280;11158;53.404;-1.510;2023-04-04T15:40:46;101331.50;;;17.69;22.96
21988;BME280;11158;53.404;-1.510;2023-04-04T15:43:30;101338.38;;;17.98;22.61
21988;BME280;11158;53.404;-1.510;2023-04-04T15:46:15;101329.16;;;18.33;22.88
21988;BME280;11158;53.404;-1.510;2023-04-04T15:48:59;101331.22;;;18.31;23.40
21988;BME280;11158;53.404;-1.510;2023-04-04T15:51:44;101327.97;;;17.62;24.20
21988;BME280;11158;53.404;-1.510;2023-04-04T15:54:30;101329.22;;;17.40;24.46
21988;BME280;11158;53.404;-1.510;2023-04-04T15:57:14;101327.63;;;16.29;24.60
21988;BME280;11158;53.404;-1.510;2023-04-04T15:59:58;101320.69;;;17.29;24.00
21988;BME280;11158;53.404;-1.510;2023-04-04T16:02:54;101320.72;;;17.83;22.66
21988;BME280;11158;53.404;-1.510;2023-04-04T16:05:46;101309.47;;;17.99;23.05
21988;BME280;11158;53.404;-1.510;2023-04-04T16:09:16;101295.25;;;18.24;23.52
21988;BME280;11158;53.404;-1.510;2023-04-04T16:12:13;101296.38;;;17.96;24.26
21988;BME280;11158;53.404;-1.510;2023-04-04T16:15:18;101293.19;;;18.12;22.99
21988;BME280;11158;53.404;-1.510;2023-04-04T16:18:09;101286.81;;;17.47;24.21
21988;BME280;11158;53.404;-1.510;2023-04-04T16:21:02;101277.25;;;17.64;24.34
21988;BME280;11158;53.404;-1.510;2023-04-04T16:24:11;101271.81;;;17.91;24.86
21988;BME280;11158;53.404;-1.510;2023-04-04T16:27:03;101267.63;;;18.02;23.74
21988;BME280;11158;53.404;-1.510;2023-04-04T16:29:51;101278.00;;;18.11;23.68
21988;BME280;11158;53.404;-1.510;2023-04-04T16:32:35;101272.34;;;18.26;23.82
21988;BME280;11158;53.404;-1.510;2023-04-04T16:35:20;101285.22;;;18.31;23.88
21988;BME280;11158;53.404;-1.510;2023-04-04T16:38:05;101282.25;;;18.39;23.73
21988;BME280;11158;53.404;-1.510;2023-04-04T17:01:47;101256.13;;;18.65;23.62
21988;BME280;11158;53.404;-1.510;2023-04-04T17:04:32;101255.31;;;18.57;23.61
21988;BME280;11158;53.404;-1.510;2023-04-04T17:07:19;101258.28;;;17.84;24.69
21988;BME280;11158;53.404;-1.510;2023-04-04T17:10:04;101256.59;;;18.10;24.36
21988;BME280;11158;53.404;-1.510;2023-04-04T17:12:49;101255.81;;;17.29;25.79
21988;BME280;11158;53.404;-1.510;2023-04-04T17:15:34;101260.56;;;18.00;25.14
21988;BME280;11158;53.404;-1.510;2023-04-04T17:18:19;101251.03;;;17.25;25.12
21988;BME280;11158;53.404;-1.510;2023-04-04T17:21:04;101253.53;;;17.13;25.82
21988;BME280;11158;53.404;-1.510;2023-04-04T17:27:39;101238.78;;;16.95;25.94
21988;BME280;11158;53.404;-1.510;2023-04-04T17:30:23;101240.88;;;16.93;25.86
21988;BME280;11158;53.404;-1.510;2023-04-04T17:33:07;101233.50;;;16.67;26.35
21988;BME280;11158;53.404;-1.510;2023-04-04T17:35:51;101223.84;;;17.40;25.35
21988;BME280;11158;53.404;-1.510;2023-04-04T17:38:36;101224.44;;;17.48;25.96
21988;BME280;11158;53.404;-1.510;2023-04-04T17:41:22;101219.25;;;17.47;26.03
21988;BME280;11158;53.404;-1.510;2023-04-04T17:44:06;101226.53;;;17.13;26.02
21988;BME280;11158;53.404;-1.510;2023-04-04T17:46:51;101223.63;;;17.21;26.05
21988;BME280;11158;53.404;-1.510;2023-04-04T17:49:36;101235.81;;;16.09;27.49
21988;BME280;11158;53.404;-1.510;2023-04-04T17:52:20;101236.75;;;16.36;27.29
21988;BME280;11158;53.404;-1.510;2023-04-04T17:55:06;101233.25;;;16.49;27.32
21988;BME280;11158;53.404;-1.510;2023-04-04T17:57:54;101233.94;;;16.71;27.25
21988;BME280;11158;53.404;-1.510;2023-04-04T18:00:40;101236.41;;;16.59;27.47
21988;BME280;11158;53.404;-1.510;2023-04-04T18:03:24;101225.72;;;16.24;27.66
21988;BME280;11158;53.404;-1.510;2023-04-04T18:06:09;101234.81;;;16.23;28.37
21988;BME280;11158;53.404;-1.510;2023-04-04T18:08:53;101241.41;;;16.07;28.22
21988;BME280;11158;53.404;-1.510;2023-04-04T18:11:38;101238.34;;;15.82;28.82
21988;BME280;11158;53.404;-1.510;2023-04-04T18:14:22;101228.06;;;16.41;27.98
21988;BME280;11158;53.404;-1.510;2023-04-04T18:17:06;101216.94;;;16.77;27.98
21988;BME280;11158;53.404;-1.510;2023-04-04T18:19:52;101225.38;;;15.93;29.03
21988;BME280;11158;53.404;-1.510;2023-04-04T18:22:37;101229.63;;;15.74;29.01
21988;BME280;11158;53.404;-1.510;2023-04-04T18:25:21;101223.91;;;16.51;28.07
21988;BME280;11158;53.404;-1.510;2023-04-04T18:28:05;101228.81;;;16.28;28.39
21988;BME280;11158;53.404;-1.510;2023-04-04T18:30:50;101233.06;;;16.50;28.21
21988;BME280;11158;53.404;-1.510;2023-04-04T18:33:34;101236.28;;;16.87;27.66